sensor_id;sensor_type;location;lat;lon;timestamp;pressure;altitude;pressure_sealevel;temperature;humidity
21988;BME280;11158;53.404;-1.510;2023-02-18T00:02:04;100628.03;;;14.52;63.70
21988;BME280;11158;53.404;-1.510;2023-02-18T00:04:30;100634.81;;;14.21;64.89
21988;BME280;11158;53.404;-1.510;2023-02-18T00:06:56;100627.31;;;14.10;65.03
21988;BME280;11158;53.404;-1.510;2023-02-18T00:09:22;100622.84;;;14.30;64.10
21988;BME280;11158;53.404;-1.510;2023-02-18T00:11:47;100618.75;;;14.54;64.28
21988;BME280;11158;53.404;-1.510;2023-02-18T00:14:14;100616.66;;;14.50;63.53
21988;BME280;11158;53.404;-1.510;2023-02-18T00:16:41;100621.19;;;14.36;64.55
21988;BME280;11158;53.404;-1.510;2023-02-18T00:19:09;100612.75;;;14.65;63.26
21988;BME280;11158;53.404;-1.510;2023-02-18T00:21:36;100602.56;;;14.34;63.84
21988;BME280;11158;53.404;-1.510;2023-02-18T00:24:03;100590.97;;;14.40;64.13
21988;BME280;11158;53.404;-1.510;2023-02-18T00:26:29;100587.31;;;14.55;63.10
21988;BME280;11158;53.404;-1.510;2023-02-18T00:28:55;100604.44;;;14.47;63.49
21988;BME280;11158;53.404;-1.510;2023-02-18T00:31:26;100586.47;;;14.54;63.39
21988;BME280;11158;53.404;-1.510;2023-02-18T00:33:52;100580.22;;;15.20;61.58
21988;BME280;11158;53.404;-1.510;2023-02-18T00:36:20;100584.34;;;15.29;60.87
21988;BME280;11158;53.404;-1.510;2023-02-18T00:38:48;100595.84;;;15.77;59.04
21988;BME280;11158;53.404;-1.510;2023-02-18T00:41:15;100593.59;;;15.74;58.97
21988;BME280;11158;53.404;-1.510;2023-02-18T00:43:41;100583.31;;;15.44;59.47
21988;BME280;11158;53.404;-1.510;2023-02-18T00:46:08;100587.94;;;14.63;61.59
21988;BME280;11158;53.404;-1.510;2023-02-18T00:48:34;100602.22;;;14.97;61.47
21988;BME280;11158;53.404;-1.510;2023-02-18T00:51:01;100590.97;;;15.40;60.03
21988;BME280;11158;53.404;-1.510;2023-02-18T00:53:28;100599.69;;;15.36;59.06
21988;BME280;11158;53.404;-1.510;2023-02-18T00:55:54;100601.22;;;15.70;58.87
21988;BME280;11158;53.404;-1.510;2023-02-18T00:58:19;100589.25;;;15.53;59.48
21988;BME280;11158;53.404;-1.510;2023-02-18T01:00:45;100596.53;;;15.39;59.79
21988;BME280;11158;53.404;-1.510;2023-02-18T01:03:12;100595.97;;;15.23;60.58
21988;BME280;11158;53.404;-1.510;2023-02-18T01:05:38;100598.19;;;14.20;63.10
21988;BME280;11158;53.404;-1.510;2023-02-18T01:08:05;100604.06;;;15.10;60.64
21988;BME280;11158;53.404;-1.510;2023-02-18T01:10:31;100595.03;;;15.63;58.54
21988;BME280;11158;53.404;-1.510;2023-02-18T01:12:57;100595.97;;;16.33;56.78
21988;BME280;11158;53.404;-1.510;2023-02-18T01:15:23;100587.78;;;15.57;58.38
21988;BME280;11158;53.404;-1.510;2023-02-18T01:17:48;100591.78;;;15.34;59.39
21988;BME280;11158;53.404;-1.510;2023-02-18T01:20:16;100588.78;;;15.69;58.60
21988;BME280;11158;53.404;-1.510;2023-02-18T01:22:42;100580.84;;;15.22;59.33
21988;BME280;11158;53.404;-1.510;2023-02-18T01:25:08;100578.41;;;15.07;60.59
21988;BME280;11158;53.404;-1.510;2023-02-18T01:27:34;100567.41;;;14.22;62.45
21988;BME280;11158;53.404;-1.510;2023-02-18T01:30:00;100556.81;;;14.08;62.53
21988;BME280;11158;53.404;-1.510;2023-02-18T01:32:26;100530.97;;;14.20;62.60
21988;BME280;11158;53.404;-1.510;2023-02-18T01:34:52;100516.09;;;14.91;60.64
21988;BME280;11158;53.404;-1.510;2023-02-18T01:37:17;100521.38;;;13.77;63.49
21988;BME280;11158;53.404;-1.510;2023-02-18T01:39:43;100509.47;;;14.33;62.68
21988;BME280;11158;53.404;-1.510;2023-02-18T01:42:19;100495.00;;;14.21;62.30
21988;BME280;11158;53.404;-1.510;2023-02-18T01:44:47;100486.31;;;14.19;62.34
21988;BME280;11158;53.404;-1.510;2023-02-18T01:47:14;100496.84;;;13.94;63.17
21988;BME280;11158;53.404;-1.510;2023-02-18T01:49:40;100491.69;;;14.52;61.55
21988;BME280;11158;53.404;-1.510;2023-02-18T01:52:10;100498.63;;;13.67;64.36
21988;BME280;11158;53.404;-1.510;2023-02-18T01:54:40;100479.91;;;14.00;63.39
21988;BME280;11158;53.404;-1.510;2023-02-18T01:57:11;100486.06;;;13.87;63.95
21988;BME280;11158;53.404;-1.510;2023-02-18T01:59:43;100470.97;;;13.99;63.63
21988;BME280;11158;53.404;-1.510;2023-02-18T02:02:13;100439.84;;;13.37;65.07
21988;BME280;11158;53.404;-1.510;2023-02-18T02:04:41;100435.44;;;13.97;63.87
21988;BME280;11158;53.404;-1.510;2023-02-18T02:07:07;100414.28;;;13.48;64.69
21988;BME280;11158;53.404;-1.510;2023-02-18T02:09:34;100434.81;;;13.20;66.04
21988;BME280;11158;53.404;-1.510;2023-02-18T02:13:05;100429.88;;;12.83;67.44
21988;BME280;11158;53.404;-1.510;2023-02-18T02:28:43;100412.94;;;13.24;65.29
21988;BME280;11158;53.404;-1.510;2023-02-18T02:48:16;100353.38;;;12.45;66.71
21988;BME280;11158;53.404;-1.510;2023-02-18T02:50:59;100345.25;;;12.67;67.07
21988;BME280;11158;53.404;-1.510;2023-02-18T02:53:30;100336.44;;;13.74;62.55
21988;BME280;11158;53.404;-1.510;2023-02-18T02:55:58;100343.31;;;11.91;68.51
21988;BME280;11158;53.404;-1.510;2023-02-18T02:58:23;100343.09;;;12.14;67.96
21988;BME280;11158;53.404;-1.510;2023-02-18T03:12:38;100319.66;;;12.71;66.02
21988;BME280;11158;53.404;-1.510;2023-02-18T03:15:13;100301.59;;;12.03;68.42
21988;BME280;11158;53.404;-1.510;2023-02-18T03:17:48;100300.50;;;11.98;67.92
21988;BME280;11158;53.404;-1.510;2023-02-18T03:20:24;100285.06;;;12.34;67.27
21988;BME280;11158;53.404;-1.510;2023-02-18T03:22:51;100294.31;;;11.97;67.92
21988;BME280;11158;53.404;-1.510;2023-02-18T03:25:19;100283.28;;;12.13;67.02
21988;BME280;11158;53.404;-1.510;2023-02-18T03:27:52;100248.69;;;12.12;67.22
21988;BME280;11158;53.404;-1.510;2023-02-18T03:30:23;100279.19;;;12.18;67.47
21988;BME280;11158;53.404;-1.510;2023-02-18T03:32:54;100244.09;;;12.06;67.19
21988;BME280;11158;53.404;-1.510;2023-02-18T03:35:21;100246.41;;;12.15;67.10
21988;BME280;11158;53.404;-1.510;2023-02-18T03:37:50;100258.81;;;11.88;68.10
21988;BME280;11158;53.404;-1.510;2023-02-18T03:40:18;100256.03;;;12.03;67.64
21988;BME280;11158;53.404;-1.510;2023-02-18T03:42:44;100238.94;;;11.76;68.90
21988;BME280;11158;53.404;-1.510;2023-02-18T03:45:10;100230.66;;;12.41;66.54
21988;BME280;11158;53.404;-1.510;2023-02-18T03:47:35;100234.00;;;11.73;68.19
21988;BME280;11158;53.404;-1.510;2023-02-18T03:50:01;100237.13;;;11.83;68.45
21988;BME280;11158;53.404;-1.510;2023-02-18T03:52:26;100206.19;;;12.09;68.27
21988;BME280;11158;53.404;-1.510;2023-02-18T03:54:52;100227.06;;;11.85;68.92
21988;BME280;11158;53.404;-1.510;2023-02-18T03:57:18;100223.03;;;11.96;68.75
21988;BME280;11158;53.404;-1.510;2023-02-18T03:59:43;100217.81;;;11.88;69.11
21988;BME280;11158;53.404;-1.510;2023-02-18T04:02:09;100262.00;;;11.99;68.41
21988;BME280;11158;53.404;-1.510;2023-02-18T04:04:34;100229.72;;;11.85;69.45
21988;BME280;11158;53.404;-1.510;2023-02-18T04:07:00;100225.75;;;11.74;70.30
21988;BME280;11158;53.404;-1.510;2023-02-18T04:09:25;100222.28;;;11.81;69.77
21988;BME280;11158;53.404;-1.510;2023-02-18T04:11:51;100232.41;;;11.85;69.32
21988;BME280;11158;53.404;-1.510;2023-02-18T04:14:16;100244.03;;;11.92;69.10
21988;BME280;11158;53.404;-1.510;2023-02-18T04:16:42;100216.25;;;12.00;68.58
21988;BME280;11158;53.404;-1.510;2023-02-18T04:19:08;100226.88;;;12.22;67.72
21988;BME280;11158;53.404;-1.510;2023-02-18T04:21:33;100229.78;;;12.27;67.49
21988;BME280;11158;53.404;-1.510;2023-02-18T04:23:59;100233.16;;;11.72;69.38
21988;BME280;11158;53.404;-1.510;2023-02-18T04:26:25;100230.03;;;11.97;69.10
21988;BME280;11158;53.404;-1.510;2023-02-18T04:28:51;100225.53;;;11.41;71.28
21988;BME280;11158;53.404;-1.510;2023-02-18T04:31:17;100224.78;;;12.17;69.07
21988;BME280;11158;53.404;-1.510;2023-02-18T04:33:42;100212.81;;;12.13;68.36
21988;BME280;11158;53.404;-1.510;2023-02-18T04:36:08;100222.25;;;11.74;70.35
21988;BME280;11158;53.404;-1.510;2023-02-18T04:38:34;100233.31;;;12.34;68.50
21988;BME280;11158;53.404;-1.510;2023-02-18T04:40:59;100238.84;;;11.91;70.47
21988;BME280;11158;53.404;-1.510;2023-02-18T04:43:25;100238.63;;;12.27;68.57
21988;BME280;11158;53.404;-1.510;2023-02-18T04:45:51;100249.50;;;12.12;69.29
21988;BME280;11158;53.404;-1.510;2023-02-18T04:48:16;100243.78;;;12.22;68.94
21988;BME280;11158;53.404;-1.510;2023-02-18T04:50:43;100235.25;;;12.53;68.16
21988;BME280;11158;53.404;-1.510;2023-02-18T04:53:08;100252.03;;;12.27;68.73
21988;BME280;11158;53.404;-1.510;2023-02-18T04:55:34;100268.88;;;12.14;68.82
21988;BME280;11158;53.404;-1.510;2023-02-18T04:57:59;100262.91;;;11.84;70.49
21988;BME280;11158;53.404;-1.510;2023-02-18T05:00:25;100255.81;;;12.05;70.39
21988;BME280;11158;53.404;-1.510;2023-02-18T05:02:52;100251.97;;;12.07;69.68
21988;BME280;11158;53.404;-1.510;2023-02-18T05:05:18;100249.53;;;11.84;70.11
21988;BME280;11158;53.404;-1.510;2023-02-18T05:07:43;100253.16;;;12.05;69.61
21988;BME280;11158;53.404;-1.510;2023-02-18T05:10:11;100249.53;;;12.19;69.24
21988;BME280;11158;53.404;-1.510;2023-02-18T05:12:38;100245.16;;;12.60;67.63
21988;BME280;11158;53.404;-1.510;2023-02-18T05:15:05;100226.19;;;11.78;69.47
21988;BME280;11158;53.404;-1.510;2023-02-18T05:17:30;100260.84;;;12.56;67.97
21988;BME280;11158;53.404;-1.510;2023-02-18T05:19:56;100261.72;;;12.76;67.51
21988;BME280;11158;53.404;-1.510;2023-02-18T05:22:21;100237.16;;;12.79;67.22
21988;BME280;11158;53.404;-1.510;2023-02-18T05:24:47;100251.63;;;12.78;66.91
21988;BME280;11158;53.404;-1.510;2023-02-18T05:27:12;100248.84;;;12.52;67.78
21988;BME280;11158;53.404;-1.510;2023-02-18T05:29:38;100241.09;;;12.77;67.20
21988;BME280;11158;53.404;-1.510;2023-02-18T05:32:04;100234.53;;;12.93;66.24
21988;BME280;11158;53.404;-1.510;2023-02-18T05:34:29;100245.69;;;12.96;65.89
21988;BME280;11158;53.404;-1.510;2023-02-18T05:36:55;100259.06;;;12.83;66.22
21988;BME280;11158;53.404;-1.510;2023-02-18T05:39:21;100253.09;;;13.08;65.90
21988;BME280;11158;53.404;-1.510;2023-02-18T05:41:46;100245.91;;;13.15;65.96
21988;BME280;11158;53.404;-1.510;2023-02-18T05:44:12;100249.81;;;13.19;65.55
21988;BME280;11158;53.404;-1.510;2023-02-18T05:46:57;100238.06;;;13.20;65.92
21988;BME280;11158;53.404;-1.510;2023-02-18T05:49:24;100247.22;;;12.51;68.32
21988;BME280;11158;53.404;-1.510;2023-02-18T05:51:50;100237.72;;;12.55;68.34
21988;BME280;11158;53.404;-1.510;2023-02-18T05:54:15;100211.34;;;12.65;67.46
21988;BME280;11158;53.404;-1.510;2023-02-18T05:56:41;100244.91;;;12.48;68.60
21988;BME280;11158;53.404;-1.510;2023-02-18T05:59:07;100231.13;;;12.51;68.65
21988;BME280;11158;53.404;-1.510;2023-02-18T06:01:32;100234.94;;;12.90;67.10
21988;BME280;11158;53.404;-1.510;2023-02-18T06:03:58;100235.94;;;12.89;66.74
21988;BME280;11158;53.404;-1.510;2023-02-18T06:06:23;100245.31;;;13.33;65.38
21988;BME280;11158;53.404;-1.510;2023-02-18T06:08:49;100264.75;;;13.61;64.64
21988;BME280;11158;53.404;-1.510;2023-02-18T06:11:14;100258.97;;;13.38;65.31
21988;BME280;11158;53.404;-1.510;2023-02-18T06:13:40;100266.81;;;13.53;65.03
21988;BME280;11158;53.404;-1.510;2023-02-18T06:16:06;100268.06;;;13.50;64.80
21988;BME280;11158;53.404;-1.510;2023-02-18T06:18:31;100259.31;;;13.08;66.23
21988;BME280;11158;53.404;-1.510;2023-02-18T06:20:57;100280.44;;;13.38;64.83
21988;BME280;11158;53.404;-1.510;2023-02-18T06:23:23;100268.03;;;13.30;64.59
21988;BME280;11158;53.404;-1.510;2023-02-18T06:25:49;100272.56;;;13.83;63.27
21988;BME280;11158;53.404;-1.510;2023-02-18T06:28:16;100270.72;;;13.30;64.03
21988;BME280;11158;53.404;-1.510;2023-02-18T06:30:41;100280.78;;;13.21;64.25
21988;BME280;11158;53.404;-1.510;2023-02-18T06:33:07;100293.25;;;13.36;63.79
21988;BME280;11158;53.404;-1.510;2023-02-18T06:35:32;100279.59;;;13.24;63.98
21988;BME280;11158;53.404;-1.510;2023-02-18T06:37:59;100284.16;;;13.37;63.63
21988;BME280;11158;53.404;-1.510;2023-02-18T06:40:25;100289.53;;;13.50;63.55
21988;BME280;11158;53.404;-1.510;2023-02-18T06:42:50;100286.94;;;12.95;64.72
21988;BME280;11158;53.404;-1.510;2023-02-18T06:45:16;100273.69;;;12.87;63.97
21988;BME280;11158;53.404;-1.510;2023-02-18T06:47:41;100318.31;;;12.95;63.36
21988;BME280;11158;53.404;-1.510;2023-02-18T06:50:07;100294.41;;;13.13;62.83
21988;BME280;11158;53.404;-1.510;2023-02-18T06:52:33;100277.25;;;13.08;62.10
21988;BME280;11158;53.404;-1.510;2023-02-18T06:54:59;100281.22;;;13.18;61.14
21988;BME280;11158;53.404;-1.510;2023-02-18T06:57:25;100277.47;;;12.99;60.69
21988;BME280;11158;53.404;-1.510;2023-02-18T06:59:50;100269.91;;;13.43;58.86
21988;BME280;11158;53.404;-1.510;2023-02-18T07:02:16;100298.19;;;13.32;58.97
21988;BME280;11158;53.404;-1.510;2023-02-18T07:04:41;100283.84;;;12.98;58.75
21988;BME280;11158;53.404;-1.510;2023-02-18T07:07:07;100294.81;;;12.97;58.58
21988;BME280;11158;53.404;-1.510;2023-02-18T07:09:32;100299.78;;;13.07;59.03
21988;BME280;11158;53.404;-1.510;2023-02-18T07:11:58;100282.84;;;12.99;59.05
21988;BME280;11158;53.404;-1.510;2023-02-18T07:14:24;100295.25;;;13.20;58.32
21988;BME280;11158;53.404;-1.510;2023-02-18T07:16:50;100283.47;;;13.08;57.80
21988;BME280;11158;53.404;-1.510;2023-02-18T07:19:16;100302.13;;;13.43;57.70
21988;BME280;11158;53.404;-1.510;2023-02-18T07:21:42;100318.38;;;13.21;57.50
21988;BME280;11158;53.404;-1.510;2023-02-18T07:24:07;100309.59;;;13.68;56.47
21988;BME280;11158;53.404;-1.510;2023-02-18T07:26:33;100319.56;;;12.99;58.64
21988;BME280;11158;53.404;-1.510;2023-02-18T07:28:59;100322.88;;;13.08;58.19
21988;BME280;11158;53.404;-1.510;2023-02-18T07:31:24;100337.19;;;12.73;58.65
21988;BME280;11158;53.404;-1.510;2023-02-18T07:33:50;100320.03;;;13.16;57.51
21988;BME280;11158;53.404;-1.510;2023-02-18T07:36:15;100318.75;;;13.12;57.36
21988;BME280;11158;53.404;-1.510;2023-02-18T07:38:41;100333.94;;;13.59;56.47
21988;BME280;11158;53.404;-1.510;2023-02-18T07:41:20;100318.66;;;13.60;56.10
21988;BME280;11158;53.404;-1.510;2023-02-18T07:43:46;100339.94;;;13.48;56.63
21988;BME280;11158;53.404;-1.510;2023-02-18T07:46:11;100337.03;;;13.70;55.92
21988;BME280;11158;53.404;-1.510;2023-02-18T07:48:37;100337.91;;;13.77;55.71
21988;BME280;11158;53.404;-1.510;2023-02-18T07:51:10;100333.47;;;13.23;57.24
21988;BME280;11158;53.404;-1.510;2023-02-18T07:53:37;100327.41;;;13.07;57.83
21988;BME280;11158;53.404;-1.510;2023-02-18T07:56:03;100340.03;;;13.07;57.28
21988;BME280;11158;53.404;-1.510;2023-02-18T07:58:31;100341.97;;;13.39;56.75
21988;BME280;11158;53.404;-1.510;2023-02-18T08:00:58;100331.63;;;13.30;57.38
21988;BME280;11158;53.404;-1.510;2023-02-18T08:03:28;100357.56;;;13.09;57.31
21988;BME280;11158;53.404;-1.510;2023-02-18T08:05:54;100355.16;;;13.28;57.55
21988;BME280;11158;53.404;-1.510;2023-02-18T08:08:26;100370.06;;;13.37;56.68
21988;BME280;11158;53.404;-1.510;2023-02-18T08:10:55;100385.16;;;13.58;56.73
21988;BME280;11158;53.404;-1.510;2023-02-18T08:13:21;100381.22;;;13.34;56.67
21988;BME280;11158;53.404;-1.510;2023-02-18T08:15:46;100386.00;;;13.72;55.90
21988;BME280;11158;53.404;-1.510;2023-02-18T08:18:17;100382.09;;;14.01;54.83
21988;BME280;11158;53.404;-1.510;2023-02-18T08:20:44;100378.06;;;14.77;52.84
21988;BME280;11158;53.404;-1.510;2023-02-18T08:23:12;100377.53;;;14.35;53.51
21988;BME280;11158;53.404;-1.510;2023-02-18T08:25:38;100391.59;;;14.17;54.52
21988;BME280;11158;53.404;-1.510;2023-02-18T08:28:05;100401.97;;;13.93;55.53
21988;BME280;11158;53.404;-1.510;2023-02-18T08:30:30;100415.75;;;14.70;53.11
21988;BME280;11158;53.404;-1.510;2023-02-18T08:32:56;100414.34;;;14.34;54.06
21988;BME280;11158;53.404;-1.510;2023-02-18T08:35:22;100431.69;;;13.78;55.43
21988;BME280;11158;53.404;-1.510;2023-02-18T08:37:47;100423.41;;;13.67;56.08
21988;BME280;11158;53.404;-1.510;2023-02-18T08:40:13;100430.66;;;13.73;55.93
21988;BME280;11158;53.404;-1.510;2023-02-18T08:42:39;100443.03;;;13.67;55.67
21988;BME280;11158;53.404;-1.510;2023-02-18T08:45:05;100450.75;;;14.23;55.07
21988;BME280;11158;53.404;-1.510;2023-02-18T08:47:32;100466.88;;;14.70;53.13
21988;BME280;11158;53.404;-1.510;2023-02-18T08:49:57;100476.31;;;14.99;53.06
21988;BME280;11158;53.404;-1.510;2023-02-18T08:52:24;100486.94;;;14.81;52.16
21988;BME280;11158;53.404;-1.510;2023-02-18T08:54:50;100488.00;;;14.73;52.60
21988;BME280;11158;53.404;-1.510;2023-02-18T08:57:16;100509.31;;;14.55;53.83
21988;BME280;11158;53.404;-1.510;2023-02-18T08:59:41;100498.41;;;15.28;51.80
21988;BME280;11158;53.404;-1.510;2023-02-18T09:02:17;100522.13;;;15.51;51.14
21988;BME280;11158;53.404;-1.510;2023-02-18T09:04:43;100518.59;;;14.79;52.80
21988;BME280;11158;53.404;-1.510;2023-02-18T09:07:08;100519.72;;;15.29;50.97
21988;BME280;11158;53.404;-1.510;2023-02-18T09:09:34;100546.13;;;14.87;52.04
21988;BME280;11158;53.404;-1.510;2023-02-18T09:12:00;100546.94;;;14.75;52.22
21988;BME280;11158;53.404;-1.510;2023-02-18T09:14:25;100552.41;;;15.46;50.40
21988;BME280;11158;53.404;-1.510;2023-02-18T09:16:51;100555.88;;;16.05;48.57
21988;BME280;11158;53.404;-1.510;2023-02-18T09:19:17;100559.00;;;15.50;49.82
21988;BME280;11158;53.404;-1.510;2023-02-18T09:21:43;100576.03;;;15.51;49.86
21988;BME280;11158;53.404;-1.510;2023-02-18T09:24:08;100581.72;;;14.83;51.15
21988;BME280;11158;53.404;-1.510;2023-02-18T09:26:35;100589.53;;;15.96;48.60
21988;BME280;11158;53.404;-1.510;2023-02-18T09:29:01;100579.28;;;16.43;47.98
21988;BME280;11158;53.404;-1.510;2023-02-18T09:31:27;100591.72;;;15.74;48.79
21988;BME280;11158;53.404;-1.510;2023-02-18T09:33:58;100601.25;;;15.63;49.11
21988;BME280;11158;53.404;-1.510;2023-02-18T09:36:24;100615.81;;;16.07;48.11
21988;BME280;11158;53.404;-1.510;2023-02-18T09:38:50;100617.63;;;15.62;49.29
21988;BME280;11158;53.404;-1.510;2023-02-18T09:41:46;100607.75;;;15.29;49.91
21988;BME280;11158;53.404;-1.510;2023-02-18T09:44:20;100613.38;;;15.99;48.51
21988;BME280;11158;53.404;-1.510;2023-02-18T09:49:22;100606.84;;;16.52;47.46
21988;BME280;11158;53.404;-1.510;2023-02-18T09:51:49;100608.13;;;15.53;49.84
21988;BME280;11158;53.404;-1.510;2023-02-18T09:54:17;100613.94;;;15.49;50.06
21988;BME280;11158;53.404;-1.510;2023-02-18T09:56:45;100620.22;;;15.95;49.26
21988;BME280;11158;53.404;-1.510;2023-02-18T09:59:17;100617.47;;;15.43;50.77
21988;BME280;11158;53.404;-1.510;2023-02-18T10:01:46;100613.25;;;15.67;49.75
21988;BME280;11158;53.404;-1.510;2023-02-18T10:06:45;100603.00;;;16.34;48.44
21988;BME280;11158;53.404;-1.510;2023-02-18T10:09:32;100610.63;;;15.47;50.01
21988;BME280;11158;53.404;-1.510;2023-02-18T10:12:19;100596.63;;;15.19;51.27
21988;BME280;11158;53.404;-1.510;2023-02-18T10:14:51;100597.25;;;15.86;49.63
21988;BME280;11158;53.404;-1.510;2023-02-18T10:17:20;100591.31;;;15.70;49.94
21988;BME280;11158;53.404;-1.510;2023-02-18T10:19:48;100594.41;;;15.74;49.97
21988;BME280;11158;53.404;-1.510;2023-02-18T10:22:15;100582.72;;;15.15;50.62
21988;BME280;11158;53.404;-1.510;2023-02-18T10:24:43;100584.44;;;15.81;49.45
21988;BME280;11158;53.404;-1.510;2023-02-18T10:27:15;100570.34;;;15.73;49.83
21988;BME280;11158;53.404;-1.510;2023-02-18T10:29:42;100575.03;;;15.97;48.89
21988;BME280;11158;53.404;-1.510;2023-02-18T10:32:27;100569.25;;;15.87;49.70
21988;BME280;11158;53.404;-1.510;2023-02-18T10:35:46;100588.91;;;15.94;49.70
21988;BME280;11158;53.404;-1.510;2023-02-18T10:40:46;100572.75;;;16.26;48.49
21988;BME280;11158;53.404;-1.510;2023-02-18T10:51:33;100561.81;;;15.24;51.59
21988;BME280;11158;53.404;-1.510;2023-02-18T10:54:00;100561.47;;;15.59;51.09
21988;BME280;11158;53.404;-1.510;2023-02-18T10:56:45;100575.75;;;15.59;51.02
21988;BME280;11158;53.404;-1.510;2023-02-18T10:59:23;100568.72;;;16.10;49.41
21988;BME280;11158;53.404;-1.510;2023-02-18T11:01:59;100562.44;;;15.84;49.96
21988;BME280;11158;53.404;-1.510;2023-02-18T11:04:38;100571.38;;;16.17;49.37
21988;BME280;11158;53.404;-1.510;2023-02-18T11:07:15;100575.66;;;16.31;49.07
21988;BME280;11158;53.404;-1.510;2023-02-18T11:15:19;100587.31;;;15.08;51.48
21988;BME280;11158;53.404;-1.510;2023-02-18T11:17:48;100552.06;;;15.23;51.22
21988;BME280;11158;53.404;-1.510;2023-02-18T11:25:34;100589.69;;;15.49;50.66
21988;BME280;11158;53.404;-1.510;2023-02-18T11:28:25;100600.13;;;15.19;51.74
21988;BME280;11158;53.404;-1.510;2023-02-18T11:30:56;100587.91;;;15.23;51.21
21988;BME280;11158;53.404;-1.510;2023-02-18T11:33:31;100578.09;;;15.49;50.78
21988;BME280;11158;53.404;-1.510;2023-02-18T11:36:03;100592.88;;;15.06;50.80
21988;BME280;11158;53.404;-1.510;2023-02-18T11:39:37;100593.84;;;15.39;50.73
21988;BME280;11158;53.404;-1.510;2023-02-18T11:44:33;100592.97;;;15.58;50.87
21988;BME280;11158;53.404;-1.510;2023-02-18T11:47:03;100592.16;;;15.58;51.22
21988;BME280;11158;53.404;-1.510;2023-02-18T11:49:32;100584.22;;;15.83;50.92
21988;BME280;11158;53.404;-1.510;2023-02-18T11:52:39;100579.78;;;15.30;53.15
21988;BME280;11158;53.404;-1.510;2023-02-18T11:55:05;100591.47;;;14.64;56.15
21988;BME280;11158;53.404;-1.510;2023-02-18T11:57:36;100577.59;;;14.60;56.45
21988;BME280;11158;53.404;-1.510;2023-02-18T12:00:15;100595.09;;;14.16;57.68
21988;BME280;11158;53.404;-1.510;2023-02-18T12:02:46;100598.69;;;14.70;56.06
21988;BME280;11158;53.404;-1.510;2023-02-18T12:07:51;100577.34;;;15.08;53.47
21988;BME280;11158;53.404;-1.510;2023-02-18T12:10:32;100589.84;;;15.68;52.06
21988;BME280;11158;53.404;-1.510;2023-02-18T12:13:03;100600.22;;;16.48;50.12
21988;BME280;11158;53.404;-1.510;2023-02-18T12:15:42;100602.06;;;16.22;49.62
21988;BME280;11158;53.404;-1.510;2023-02-18T12:21:01;100616.72;;;17.15;47.19
21988;BME280;11158;53.404;-1.510;2023-02-18T12:26:21;100621.16;;;16.52;48.31
21988;BME280;11158;53.404;-1.510;2023-02-18T12:42:09;100648.28;;;18.13;44.30
21988;BME280;11158;53.404;-1.510;2023-02-18T12:47:37;100663.53;;;17.09;46.09
21988;BME280;11158;53.404;-1.510;2023-02-18T12:53:06;100653.53;;;16.52;48.11
21988;BME280;11158;53.404;-1.510;2023-02-18T12:56:24;100656.19;;;17.59;45.71
21988;BME280;11158;53.404;-1.510;2023-02-18T13:01:34;100663.66;;;16.95;46.55
21988;BME280;11158;53.404;-1.510;2023-02-18T13:04:20;100660.50;;;17.24;46.59
21988;BME280;11158;53.404;-1.510;2023-02-18T13:09:46;100640.47;;;16.81;45.43
21988;BME280;11158;53.404;-1.510;2023-02-18T13:18:39;100640.94;;;16.40;47.01
21988;BME280;11158;53.404;-1.510;2023-02-18T13:21:09;100642.97;;;16.76;45.82
21988;BME280;11158;53.404;-1.510;2023-02-18T13:26:13;100621.00;;;16.79;45.91
21988;BME280;11158;53.404;-1.510;2023-02-18T13:31:38;100623.81;;;16.91;45.94
21988;BME280;11158;53.404;-1.510;2023-02-18T13:34:19;100628.81;;;16.55;46.64
21988;BME280;11158;53.404;-1.510;2023-02-18T13:39:23;100608.78;;;16.06;47.26
21988;BME280;11158;53.404;-1.510;2023-02-18T13:41:51;100613.00;;;16.27;47.53
21988;BME280;11158;53.404;-1.510;2023-02-18T13:46:49;100607.38;;;16.92;45.96
21988;BME280;11158;53.404;-1.510;2023-02-18T13:49:21;100609.94;;;17.06;44.95
21988;BME280;11158;53.404;-1.510;2023-02-18T13:51:53;100612.78;;;17.54;43.20
21988;BME280;11158;53.404;-1.510;2023-02-18T13:54:24;100596.63;;;17.29;43.92
21988;BME280;11158;53.404;-1.510;2023-02-18T13:57:02;100603.09;;;16.85;45.03
21988;BME280;11158;53.404;-1.510;2023-02-18T13:59:40;100589.78;;;16.83;45.00
21988;BME280;11158;53.404;-1.510;2023-02-18T14:02:29;100595.72;;;17.17;44.95
21988;BME280;11158;53.404;-1.510;2023-02-18T14:12:42;100594.09;;;17.53;43.46
21988;BME280;11158;53.404;-1.510;2023-02-18T14:41:18;100610.09;;;15.12;52.73
21988;BME280;11158;53.404;-1.510;2023-02-18T14:44:19;100622.50;;;15.13;52.17
21988;BME280;11158;53.404;-1.510;2023-02-18T14:52:10;100613.91;;;16.15;48.99
21988;BME280;11158;53.404;-1.510;2023-02-18T14:54:38;100622.53;;;16.62;47.65
21988;BME280;11158;53.404;-1.510;2023-02-18T14:57:13;100636.22;;;15.90;48.28
21988;BME280;11158;53.404;-1.510;2023-02-18T14:59:41;100629.06;;;16.16;48.28
21988;BME280;11158;53.404;-1.510;2023-02-18T15:02:34;100629.66;;;16.56;47.26
21988;BME280;11158;53.404;-1.510;2023-02-18T15:05:17;100628.22;;;16.47;47.68
21988;BME280;11158;53.404;-1.510;2023-02-18T15:07:56;100622.28;;;16.70;47.20
21988;BME280;11158;53.404;-1.510;2023-02-18T15:15:50;100626.72;;;16.58;47.04
21988;BME280;11158;53.404;-1.510;2023-02-18T15:18:26;100621.84;;;16.03;49.32
21988;BME280;11158;53.404;-1.510;2023-02-18T15:20:53;100612.22;;;16.20;49.05
21988;BME280;11158;53.404;-1.510;2023-02-18T15:23:19;100617.25;;;16.10;50.14
21988;BME280;11158;53.404;-1.510;2023-02-18T15:25:50;100619.97;;;15.45;52.75
21988;BME280;11158;53.404;-1.510;2023-02-18T15:28:28;100623.53;;;15.12;53.86
21988;BME280;11158;53.404;-1.510;2023-02-18T15:30:58;100619.41;;;14.96;54.16
21988;BME280;11158;53.404;-1.510;2023-02-18T15:33:25;100613.41;;;14.81;54.54
21988;BME280;11158;53.404;-1.510;2023-02-18T15:35:59;100617.13;;;15.06;53.92
21988;BME280;11158;53.404;-1.510;2023-02-18T15:38:28;100613.59;;;15.19;53.25